createdAt,value
2022-10-01T00:00:52.289Z,6.88
2022-10-01T00:03:20.711Z,6.95
2022-10-01T00:05:48.570Z,8.90
2022-10-01T00:08:16.441Z,5.97
2022-10-01T00:10:45.238Z,7.95
2022-10-01T00:13:12.669Z,6.43
2022-10-01T00:15:41.923Z,5.78
2022-10-01T00:18:10.183Z,5.28
2022-10-01T00:20:42.017Z,5.50
2022-10-01T00:23:09.436Z,7.28
2022-10-01T00:25:36.997Z,6.03
2022-10-01T00:28:05.847Z,5.20
2022-10-01T00:30:37.213Z,5.82
2022-10-01T00:33:07.050Z,6.17
2022-10-01T00:35:34.452Z,6.15
2022-10-01T00:38:01.833Z,5.97
2022-10-01T00:40:29.210Z,7.00
2022-10-01T00:42:56.577Z,8.35
2022-10-01T00:45:25.341Z,6.70
2022-10-01T00:47:56.706Z,5.25
2022-10-01T00:50:29.299Z,6.10
2022-10-01T00:53:00.486Z,6.45
2022-10-01T00:55:31.493Z,7.22
2022-10-01T00:57:59.587Z,8.07
2022-10-01T01:00:28.315Z,8.55
2022-10-01T01:02:55.996Z,10.20
2022-10-01T01:05:23.531Z,7.75
2022-10-01T01:07:53.318Z,7.32
2022-10-01T01:10:31.592Z,6.50
2022-10-01T01:13:11.991Z,7.65
2022-10-01T01:15:47.339Z,7.60
2022-10-01T01:18:22.034Z,6.43
2022-10-01T01:21:07.543Z,7.70
2022-10-01T01:24:05.376Z,8.17
2022-10-01T01:26:42.158Z,7.93
2022-10-01T01:29:18.133Z,9.68
2022-10-01T01:31:47.740Z,10.70
2022-10-01T01:34:20.885Z,7.55
2022-10-01T01:36:56.635Z,7.83
2022-10-01T01:39:30.506Z,9.52
2022-10-01T01:42:04.667Z,8.77
2022-10-01T01:44:42.701Z,9.43
2022-10-01T01:47:12.024Z,17.50
2022-10-01T01:49:40.200Z,6.93
2022-10-01T01:52:13.342Z,7.63
2022-10-01T01:54:41.413Z,8.20
2022-10-01T01:57:09.530Z,7.07
2022-10-01T01:59:38.436Z,7.40
2022-10-01T02:02:07.635Z,6.97
2022-10-01T02:04:39.331Z,9.45
2022-10-01T02:07:22.340Z,8.10
2022-10-01T02:09:56.355Z,7.57
2022-10-01T02:12:32.625Z,7.22
2022-10-01T02:15:10.615Z,6.43
2022-10-01T02:17:50.884Z,7.90
2022-10-01T02:20:25.604Z,5.05
2022-10-01T02:22:57.380Z,5.35
2022-10-01T02:25:28.608Z,7.50
2022-10-01T02:28:01.427Z,8.83
2022-10-01T02:30:32.780Z,6.60
2022-10-01T02:33:02.420Z,6.03
2022-10-01T02:35:32.683Z,5.78
2022-10-01T02:38:03.386Z,7.90
2022-10-01T02:40:34.764Z,4.40
2022-10-01T02:43:06.432Z,5.10
2022-10-01T02:45:38.334Z,6.68
2022-10-01T02:48:09.236Z,5.78
2022-10-01T02:50:44.063Z,5.10
2022-10-01T02:53:18.572Z,4.53
2022-10-01T02:55:48.354Z,4.30
2022-10-01T02:58:14.783Z,3.05
2022-10-01T03:00:43.471Z,3.97
2022-10-01T03:03:10.880Z,3.25
2022-10-01T03:05:38.284Z,5.17
2022-10-01T03:08:05.728Z,4.07
2022-10-01T03:10:33.528Z,4.90
2022-10-01T03:13:01.649Z,3.88
2022-10-01T03:15:29.564Z,3.42
2022-10-01T03:17:58.308Z,3.97
2022-10-01T03:20:26.424Z,1.88
2022-10-01T03:22:54.371Z,4.25
2022-10-01T03:25:21.940Z,3.53
2022-10-01T03:27:49.514Z,3.67
2022-10-01T03:30:17.171Z,1.77
2022-10-01T03:32:44.583Z,3.38
2022-10-01T03:35:13.360Z,2.60
2022-10-01T03:37:40.785Z,1.98
2022-10-01T03:40:09.087Z,1.77
2022-10-01T03:42:36.504Z,1.93
2022-10-01T03:45:04.385Z,2.45
2022-10-01T03:47:31.812Z,1.85
2022-10-01T03:49:59.260Z,1.50
2022-10-01T03:52:28.042Z,1.30
2022-10-01T03:54:55.454Z,3.30
2022-10-01T03:57:22.857Z,0.55
2022-10-01T03:59:50.261Z,1.33
2022-10-01T04:02:17.860Z,1.27
2022-10-01T04:04:45.373Z,1.23
2022-10-01T04:07:12.761Z,1.63
2022-10-01T04:09:41.471Z,0.95
2022-10-01T04:12:09.460Z,1.00
2022-10-01T04:14:36.828Z,0.52
2022-10-01T04:17:04.261Z,0.75
2022-10-01T04:19:31.640Z,0.93
2022-10-01T04:21:59.312Z,0.50
2022-10-01T04:24:26.706Z,0.88
2022-10-01T04:26:55.502Z,2.03
2022-10-01T04:29:22.895Z,0.57
2022-10-01T04:31:50.464Z,1.03
2022-10-01T04:34:17.981Z,1.95
2022-10-01T04:36:45.422Z,0.90
2022-10-01T04:39:12.791Z,1.20
2022-10-01T04:41:41.004Z,0.40
2022-10-01T04:44:10.294Z,0.30
2022-10-01T04:46:37.732Z,0.73
2022-10-01T04:49:05.452Z,0.40
2022-10-01T04:51:33.221Z,0.40
2022-10-01T04:54:00.840Z,0.60
2022-10-01T04:56:28.256Z,0.40
2022-10-01T04:58:55.656Z,0.13
2022-10-01T05:01:24.986Z,0.50
2022-10-01T05:03:52.578Z,0.77
2022-10-01T05:06:19.995Z,0.22
2022-10-01T05:08:48.693Z,0.20
2022-10-01T05:11:16.177Z,1.13
2022-10-01T05:13:43.624Z,0.28
2022-10-01T05:16:11.687Z,0.22
2022-10-01T05:18:40.992Z,0.28
2022-10-01T05:21:09.908Z,0.30
2022-10-01T05:23:37.297Z,0.93
2022-10-01T05:26:05.640Z,0.32
2022-10-01T05:28:33.291Z,0.20
2022-10-01T05:31:01.425Z,0.28
2022-10-01T05:33:29.503Z,0.83
2022-10-01T05:35:58.788Z,0.82
2022-10-01T05:38:26.308Z,0.17
2022-10-01T05:40:53.690Z,0.10
2022-10-01T05:43:21.110Z,0.10
2022-10-01T05:45:51.391Z,0.20
2022-10-01T05:48:18.840Z,0.38
2022-10-01T05:50:46.504Z,0.45
2022-10-01T05:53:15.955Z,0.10
2022-10-01T05:55:43.380Z,0.15
2022-10-01T05:58:13.252Z,2.20
2022-10-01T06:00:42.905Z,1.55
2022-10-01T06:03:13.307Z,0.20
2022-10-01T06:05:40.848Z,0.03
2022-10-01T06:08:09.719Z,0.17
2022-10-01T06:10:38.976Z,0.00
2022-10-01T06:13:06.880Z,0.00
2022-10-01T06:15:37.479Z,0.10
2022-10-01T06:18:05.376Z,0.52
2022-10-01T06:20:32.935Z,0.10
2022-10-01T06:23:00.425Z,0.10
2022-10-01T06:25:30.599Z,0.10
2022-10-01T06:28:00.379Z,0.10
2022-10-01T06:30:29.170Z,0.10
2022-10-01T06:33:01.068Z,0.17
2022-10-01T06:35:28.459Z,0.10
2022-10-01T06:37:55.877Z,0.08
2022-10-01T06:40:23.280Z,0.05
2022-10-01T06:42:56.025Z,0.10
2022-10-01T06:45:25.832Z,0.10
2022-10-01T06:47:57.311Z,0.10
2022-10-01T06:50:26.142Z,0.00
2022-10-01T06:52:54.010Z,0.30
2022-10-01T06:55:23.014Z,0.10
2022-10-01T06:57:55.201Z,0.00
2022-10-01T07:00:23.169Z,0.10
2022-10-01T07:02:52.412Z,0.10
2022-10-01T07:05:19.836Z,0.00
2022-10-01T07:07:48.244Z,0.00
2022-10-01T07:10:16.949Z,0.10
2022-10-01T07:12:44.339Z,0.00
2022-10-01T07:15:11.803Z,0.10
2022-10-01T07:17:44.893Z,0.63
2022-10-01T07:20:14.692Z,1.10
2022-10-01T07:22:42.347Z,0.40
2022-10-01T07:25:10.264Z,0.10
2022-10-01T07:27:38.726Z,0.10
2022-10-01T07:30:07.845Z,0.15
2022-10-01T07:32:36.083Z,0.10
2022-10-01T07:35:03.591Z,0.65
2022-10-01T07:37:32.508Z,1.57
2022-10-01T07:40:02.078Z,1.73
2022-10-01T07:42:32.745Z,1.13
2022-10-01T07:45:00.144Z,0.55
2022-10-01T07:47:27.561Z,0.43
2022-10-01T07:49:54.964Z,0.40
2022-10-01T07:52:22.469Z,0.10
2022-10-01T07:54:51.212Z,0.25
2022-10-01T07:57:18.697Z,1.20
2022-10-01T07:59:46.123Z,0.28
2022-10-01T08:02:15.704Z,0.10
2022-10-01T08:05:00.681Z,0.80
2022-10-01T08:07:28.346Z,0.38
2022-10-01T08:09:57.615Z,0.38
2022-10-01T08:12:28.814Z,3.00
2022-10-01T08:14:56.194Z,0.40
2022-10-01T08:17:28.543Z,0.20
2022-10-01T08:19:56.821Z,0.45
2022-10-01T08:22:24.203Z,2.83
2022-10-01T08:24:51.620Z,0.93
2022-10-01T08:27:20.435Z,1.27
2022-10-01T08:29:48.102Z,2.20
2022-10-01T08:32:15.536Z,1.42
2022-10-01T08:34:42.923Z,3.58
2022-10-01T08:37:10.338Z,0.65
2022-10-01T08:39:37.825Z,1.10
2022-10-01T08:42:15.244Z,4.47
2022-10-01T08:44:46.863Z,1.13
2022-10-01T08:47:20.388Z,2.10
2022-10-01T08:49:54.385Z,0.50
2022-10-01T08:52:24.198Z,3.23
2022-10-01T08:54:57.508Z,1.33
2022-10-01T08:57:29.459Z,1.35
2022-10-01T09:00:01.223Z,1.13
2022-10-01T09:02:30.385Z,0.45
2022-10-01T09:05:01.804Z,0.53
2022-10-01T09:07:46.106Z,1.35
2022-10-01T09:10:27.290Z,2.28
2022-10-01T09:13:18.499Z,0.65
2022-10-01T09:15:55.136Z,1.20
2022-10-01T09:18:30.101Z,2.40
2022-10-01T09:20:59.694Z,1.83
2022-10-01T09:23:29.749Z,1.80
2022-10-01T09:25:59.868Z,1.73
2022-10-01T09:28:30.025Z,0.63
2022-10-01T09:31:04.593Z,2.40
2022-10-01T09:33:34.071Z,0.70
2022-10-01T09:36:11.891Z,4.25
2022-10-01T09:38:41.344Z,3.95
2022-10-01T09:41:10.389Z,3.67
2022-10-01T09:43:40.434Z,3.30
2022-10-01T09:46:14.022Z,7.30
2022-10-01T09:48:46.177Z,3.53
2022-10-01T09:51:17.632Z,10.73
2022-10-01T09:53:48.755Z,7.05
2022-10-01T09:56:23.388Z,3.77
2022-10-01T09:58:54.962Z,3.20
2022-10-01T10:01:29.577Z,2.75
2022-10-01T10:03:58.932Z,4.85
2022-10-01T10:06:29.405Z,6.22
2022-10-01T10:08:59.176Z,2.77
2022-10-01T10:11:29.312Z,9.50
2022-10-01T10:14:00.013Z,4.32
2022-10-01T10:16:30.997Z,4.22
2022-10-01T10:19:02.732Z,4.18
2022-10-01T10:21:33.889Z,4.80
2022-10-01T10:24:03.554Z,5.22
2022-10-01T10:26:33.354Z,12.32
2022-10-01T10:29:02.587Z,3.70
2022-10-01T10:31:41.591Z,3.13
2022-10-01T10:34:15.222Z,3.50
2022-10-01T10:36:45.537Z,4.18
2022-10-01T10:39:20.903Z,4.45
2022-10-01T10:41:49.855Z,3.92
2022-10-01T10:44:21.263Z,6.25
2022-10-01T10:46:52.767Z,2.80
2022-10-01T10:49:24.341Z,6.25
2022-10-01T10:51:54.460Z,3.75
2022-10-01T10:54:25.648Z,5.55
2022-10-01T10:56:54.792Z,2.72
2022-10-01T10:59:22.254Z,3.60
2022-10-01T11:01:52.759Z,6.30
2022-10-01T11:04:28.562Z,4.68
2022-10-01T11:07:01.375Z,3.95
2022-10-01T11:09:34.765Z,2.63
2022-10-01T11:12:15.003Z,3.00
2022-10-01T11:14:54.865Z,3.75
2022-10-01T11:17:41.761Z,5.03
2022-10-01T11:20:23.879Z,12.98
2022-10-01T11:23:06.930Z,2.95
2022-10-01T11:25:44.472Z,2.87
2022-10-01T11:28:27.142Z,6.68
2022-10-01T11:31:01.218Z,5.07
2022-10-01T11:33:40.345Z,2.78
2022-10-01T11:36:14.889Z,4.80
2022-10-01T11:38:48.748Z,4.90
2022-10-01T11:41:22.711Z,3.05
2022-10-01T11:43:53.538Z,3.47
2022-10-01T11:46:34.694Z,5.93
2022-10-01T11:49:25.310Z,7.28
2022-10-01T11:52:03.223Z,4.17
2022-10-01T11:54:33.884Z,5.38
2022-10-01T11:57:23.340Z,4.63
2022-10-01T11:59:56.649Z,4.78
2022-10-01T12:02:31.180Z,5.85
2022-10-01T12:05:03.937Z,2.87
2022-10-01T12:07:38.813Z,5.03
2022-10-01T12:10:18.934Z,5.72
2022-10-01T12:12:50.674Z,10.07
2022-10-01T12:15:23.224Z,4.35
2022-10-01T12:17:54.216Z,4.43
2022-10-01T12:20:28.704Z,3.45
2022-10-01T12:22:59.296Z,5.95
2022-10-01T12:25:34.667Z,4.32
2022-10-01T12:28:10.585Z,5.18
2022-10-01T12:30:46.003Z,3.93
2022-10-01T12:33:35.532Z,4.20
2022-10-01T12:36:15.316Z,5.90
2022-10-01T12:38:58.492Z,9.02
2022-10-01T12:41:43.000Z,8.75
2022-10-01T12:44:34.205Z,5.27
2022-10-01T12:47:14.882Z,10.00
2022-10-01T12:49:49.260Z,7.95
2022-10-01T12:52:27.665Z,4.10
2022-10-01T12:55:16.157Z,6.47
2022-10-01T12:57:50.768Z,6.53
2022-10-01T13:00:20.574Z,3.17
2022-10-01T13:03:07.078Z,3.33
2022-10-01T13:05:44.167Z,6.70
2022-10-01T13:08:29.133Z,4.70
2022-10-01T13:11:05.351Z,4.40
2022-10-01T13:13:34.560Z,3.88
2022-10-01T13:16:09.854Z,4.32
2022-10-01T13:18:47.686Z,5.18
2022-10-01T13:21:22.818Z,5.03
2022-10-01T13:23:58.016Z,3.20
2022-10-01T13:26:33.309Z,4.47
2022-10-01T13:29:16.846Z,6.70
2022-10-01T13:31:55.046Z,8.45
2022-10-01T13:34:35.541Z,5.97
2022-10-01T13:37:14.581Z,7.43
2022-10-01T13:39:43.779Z,6.30
2022-10-01T13:42:23.011Z,5.88
2022-10-01T13:44:56.357Z,6.22
2022-10-01T13:47:25.019Z,2.85
2022-10-01T13:50:03.532Z,4.37
2022-10-01T13:52:31.858Z,8.95
2022-10-01T13:55:02.464Z,3.45
2022-10-01T13:57:34.063Z,5.60
2022-10-01T14:00:06.917Z,7.55
2022-10-01T14:02:36.512Z,6.70
2022-10-01T14:05:22.968Z,7.15
2022-10-01T14:07:56.638Z,6.97
2022-10-01T14:10:33.808Z,5.63
2022-10-01T14:13:22.458Z,5.32
2022-10-01T14:16:00.442Z,4.50
2022-10-01T14:18:33.888Z,4.28
2022-10-01T14:21:13.303Z,5.88
2022-10-01T14:23:51.905Z,5.53
2022-10-01T14:26:29.109Z,5.60
2022-10-01T14:29:06.966Z,6.23
2022-10-01T14:31:47.536Z,7.35
2022-10-01T14:34:42.167Z,5.40
2022-10-01T14:37:16.936Z,9.45
2022-10-01T14:39:45.158Z,4.82
2022-10-01T14:42:18.489Z,8.10
2022-10-01T14:44:47.727Z,6.50
2022-10-01T14:47:20.273Z,8.75
2022-10-01T14:49:48.390Z,7.60
2022-10-01T14:52:21.492Z,8.85
2022-10-01T14:54:52.607Z,5.03
2022-10-01T14:57:29.511Z,7.65
2022-10-01T14:59:58.895Z,7.53
2022-10-01T15:02:27.639Z,5.72
2022-10-01T15:04:57.090Z,7.05
2022-10-01T15:07:26.322Z,4.77
2022-10-01T15:09:53.747Z,5.55
2022-10-01T15:12:24.126Z,5.43
2022-10-01T15:14:55.318Z,5.93
2022-10-01T15:17:25.726Z,4.80
2022-10-01T15:19:55.782Z,8.70
2022-10-01T15:22:26.354Z,4.75
2022-10-01T15:24:56.935Z,5.70
2022-10-01T15:27:26.372Z,6.78
2022-10-01T15:29:58.581Z,6.10
2022-10-01T15:32:28.106Z,8.70
2022-10-01T15:34:57.698Z,5.25
2022-10-01T15:37:31.187Z,4.93
2022-10-01T15:40:00.533Z,4.68
2022-10-01T15:42:32.102Z,4.18
2022-10-01T15:45:21.919Z,3.37
2022-10-01T15:47:51.552Z,6.55
2022-10-01T15:50:21.736Z,4.00
2022-10-01T15:52:54.099Z,2.47
2022-10-01T15:55:28.063Z,4.30
2022-10-01T15:58:04.058Z,3.27
2022-10-01T16:00:34.827Z,2.63
2022-10-01T16:03:03.897Z,7.95
2022-10-01T16:05:37.688Z,4.55
2022-10-01T16:08:06.104Z,6.45
2022-10-01T16:10:36.638Z,6.57
2022-10-01T16:13:39.063Z,4.63
2022-10-01T16:16:21.293Z,8.60
2022-10-01T16:18:53.813Z,4.10
2022-10-01T16:21:22.648Z,4.15
2022-10-01T16:23:50.936Z,6.73
2022-10-01T16:26:39.429Z,4.63
2022-10-01T16:29:26.625Z,4.88
2022-10-01T16:31:56.617Z,8.57
2022-10-01T16:34:24.880Z,6.55
2022-10-01T16:36:52.267Z,4.00
2022-10-01T16:39:19.673Z,7.50
2022-10-01T16:42:01.688Z,9.48
2022-10-01T16:44:39.883Z,5.75
2022-10-01T16:47:11.032Z,5.22
2022-10-01T16:49:38.502Z,4.90
2022-10-01T16:52:06.151Z,5.28
2022-10-01T16:54:33.566Z,7.45
2022-10-01T16:57:01.868Z,7.70
2022-10-01T16:59:29.255Z,9.30
2022-10-01T17:01:57.367Z,7.03
2022-10-01T17:04:29.291Z,7.00
2022-10-01T17:06:58.917Z,8.18
2022-10-01T17:09:26.340Z,7.00
2022-10-01T17:11:53.869Z,6.22
2022-10-01T17:14:22.048Z,6.97
2022-10-01T17:16:50.574Z,8.10
2022-10-01T17:19:18.867Z,4.05
2022-10-01T17:21:47.635Z,8.95
2022-10-01T17:24:15.038Z,8.43
2022-10-01T17:26:45.254Z,11.47
2022-10-01T17:29:13.125Z,6.78
2022-10-01T17:31:44.488Z,4.43
2022-10-01T17:34:13.005Z,13.95
2022-10-01T17:36:40.648Z,5.57
2022-10-01T17:39:09.422Z,3.37
2022-10-01T17:41:36.823Z,6.85
2022-10-01T17:44:04.234Z,6.50
2022-10-01T17:46:31.965Z,5.00
2022-10-01T17:48:59.463Z,8.43
2022-10-01T17:51:26.862Z,6.53
2022-10-01T17:53:56.226Z,7.63
2022-10-01T17:56:24.986Z,6.38
2022-10-01T17:58:54.738Z,4.35
2022-10-01T18:01:22.926Z,12.27
2022-10-01T18:03:54.611Z,7.37
2022-10-01T18:06:22.210Z,11.43
2022-10-01T18:08:57.035Z,7.80
2022-10-01T18:11:27.356Z,9.02
2022-10-01T18:13:54.818Z,8.48
2022-10-01T18:16:23.170Z,6.80
2022-10-01T18:21:44.040Z,12.20
2022-10-01T18:24:11.598Z,8.15
2022-10-01T18:26:40.351Z,10.15
2022-10-01T18:29:07.806Z,8.23
2022-10-01T18:31:36.869Z,8.73
2022-10-01T18:34:12.494Z,8.88
2022-10-01T18:36:48.030Z,5.10
2022-10-01T18:39:20.313Z,10.15
2022-10-01T18:41:51.030Z,8.83
2022-10-01T18:44:20.551Z,10.38
2022-10-01T18:47:00.982Z,9.93
2022-10-01T18:49:48.518Z,7.32
2022-10-01T18:52:25.704Z,9.68
2022-10-01T18:55:10.731Z,18.63
2022-10-01T18:57:59.231Z,8.25
2022-10-01T19:00:34.549Z,9.27
2022-10-01T19:03:19.666Z,8.23
2022-10-01T19:06:13.162Z,10.15
2022-10-01T19:09:05.426Z,8.90
2022-10-01T19:11:40.978Z,8.73
2022-10-01T19:14:28.106Z,7.25
2022-10-01T19:17:07.038Z,8.88
2022-10-01T19:19:45.813Z,9.05
2022-10-01T19:22:22.194Z,11.73
2022-10-01T19:25:00.783Z,8.15
2022-10-01T19:27:41.595Z,7.63
2022-10-01T19:30:15.266Z,8.52
2022-10-01T19:32:47.243Z,11.25
2022-10-01T19:35:20.009Z,10.03
2022-10-01T19:37:52.464Z,9.77
2022-10-01T19:40:31.893Z,6.70
2022-10-01T19:43:08.983Z,3.78
2022-10-01T19:45:47.539Z,6.65
2022-10-01T19:48:22.293Z,7.97
2022-10-01T19:50:56.500Z,12.10
2022-10-01T19:53:28.658Z,8.10
2022-10-01T19:55:59.601Z,6.20
2022-10-01T19:58:27.495Z,5.55
2022-10-01T20:00:58.257Z,8.13
2022-10-01T20:03:37.259Z,7.45
2022-10-01T20:06:08.645Z,7.22
2022-10-01T20:08:42.733Z,10.73
2022-10-01T20:11:19.720Z,9.25
2022-10-01T20:14:03.628Z,8.57
2022-10-01T20:16:36.205Z,12.73
2022-10-01T20:19:14.437Z,5.95
2022-10-01T20:21:47.341Z,7.90
2022-10-01T20:24:29.515Z,8.68
2022-10-01T20:27:11.681Z,7.57
2022-10-01T20:29:47.782Z,14.60
2022-10-01T20:32:22.284Z,18.95
2022-10-01T20:35:02.750Z,11.85
2022-10-01T20:37:46.406Z,10.93
2022-10-01T20:40:18.768Z,9.70
2022-10-01T20:42:49.744Z,6.22
2022-10-01T20:45:22.531Z,10.80
2022-10-01T20:47:55.118Z,7.68
2022-10-01T20:50:29.440Z,4.25
2022-10-01T20:53:05.693Z,4.73
2022-10-01T20:55:40.524Z,7.38
2022-10-01T20:58:14.937Z,4.40
2022-10-01T21:00:45.693Z,4.00
2022-10-01T21:03:23.982Z,7.68
2022-10-01T21:05:55.062Z,4.40
2022-10-01T21:08:37.773Z,5.53
2022-10-01T21:11:08.735Z,3.30
2022-10-01T21:13:43.596Z,3.13
2022-10-01T21:16:37.937Z,6.32
2022-10-01T21:19:23.169Z,3.87
2022-10-01T21:21:57.970Z,6.43
2022-10-01T21:24:38.751Z,9.25
2022-10-01T21:27:20.177Z,7.45
2022-10-01T21:30:03.059Z,8.07
2022-10-01T21:32:42.387Z,7.00
2022-10-01T21:35:20.944Z,13.85
2022-10-01T21:37:58.263Z,16.92
2022-10-01T21:40:32.763Z,12.27
2022-10-01T21:43:08.170Z,10.70
2022-10-01T21:45:43.603Z,12.50
2022-10-01T21:48:20.596Z,18.33
2022-10-01T21:50:54.372Z,8.30
2022-10-01T21:53:36.494Z,7.03
2022-10-01T21:56:20.487Z,13.30
2022-10-01T21:59:05.229Z,12.37
2022-10-01T22:01:51.448Z,13.80
2022-10-01T22:04:24.532Z,21.80
2022-10-01T22:07:00.042Z,16.20
2022-10-01T22:09:34.344Z,12.35
2022-10-01T22:12:03.324Z,16.57
2022-10-01T22:14:31.328Z,14.07
2022-10-01T22:17:04.488Z,14.45
2022-10-01T22:19:33.904Z,10.73
2022-10-01T22:22:08.550Z,15.60
2022-10-01T22:24:40.321Z,11.03
2022-10-01T22:27:12.790Z,10.73
2022-10-01T22:29:43.505Z,11.80
2022-10-01T22:32:14.788Z,11.07
2022-10-01T22:34:48.719Z,7.13
2022-10-01T22:37:21.686Z,9.63
2022-10-01T22:39:55.579Z,11.02
2022-10-01T22:42:30.189Z,14.50
2022-10-01T22:45:03.760Z,14.05
2022-10-01T22:47:45.741Z,11.52
2022-10-01T22:50:41.818Z,9.10
2022-10-01T22:53:24.309Z,10.73
2022-10-01T22:55:55.152Z,7.47
2022-10-01T22:58:34.852Z,12.75
2022-10-01T23:01:11.982Z,8.43
2022-10-01T23:03:56.991Z,9.40
2022-10-01T23:06:34.275Z,10.65
2022-10-01T23:09:08.924Z,15.00
2022-10-01T23:11:47.328Z,11.02
2022-10-01T23:14:24.319Z,16.75
2022-10-01T23:16:56.781Z,10.83
2022-10-01T23:19:37.738Z,9.80
2022-10-01T23:22:12.670Z,13.80
2022-10-01T23:24:55.177Z,12.45
2022-10-01T23:27:36.641Z,10.95
2022-10-01T23:30:09.755Z,14.70
2022-10-01T23:33:13.805Z,11.65
2022-10-01T23:35:49.103Z,9.68
2022-10-01T23:38:30.372Z,15.13
2022-10-01T23:41:04.657Z,6.10
2022-10-01T23:43:38.400Z,13.30
2022-10-01T23:46:12.661Z,8.85
2022-10-01T23:48:45.016Z,10.93
2022-10-01T23:51:19.879Z,10.57
2022-10-01T23:53:55.911Z,12.80
2022-10-01T23:56:45.104Z,16.07
2022-10-01T23:59:18.766Z,8.30
